Garndolbenmaen, United Kingdom
Current Conditions -  °F | °C
As of 11:50 AM on Monday 24 Nov 2014 (Local Time) from EGOV Reporting Station
Scattered Clouds Scattered Clouds  
Wind Chill: 50°   Ceiling: Unl
Heat Index: 50°   Visibility: 6mi
Dew Point: 37°   Wind: 13mph
Humidity: 62%   Direction: 240°WSW
Pressure: 30.3"   Gusts: NA
Location:  52.96°N, 4.21°W
Report Text: EGOV 241150Z 24011KT 9999 FEW030 SCT240 10/03 Q1026 BLU NOSIG
Loading
Personal Weather Stations






























Interactive Weather Map New forecast layout! Learn more

10-Day Weather Forecast

Advertisements
Track Severe Weather on mobile